La Victoria — XCAJ4 — position and weather

sailwx.info

Track history (hours):
 
Tides and Currents Weather Stations Pressure Air Temp Water Temp Dewpoint Dewpoint Depression Visibility Wind Speed Wind Dir Waves Ship Positions

La Victoria

Last reported at 2018-Jun-22 01:28 UTC. Time now 2018-Jun-22 01:30 UTC.
Position N 19°12' W 096°08'.

Length 15 m.

Type: Pilot. MMSI: 345030092.

Date/timePositionNaut miles runAvg speedWind from/ knotsBaromVisibWave heightAir tempDewpointWater temp
2018-Jun-22 01:28N 19°12' W 096°08'0 0.0
2018-Jun-22 00:52N 19°12' W 096°08'0 0.0
2018-Jun-22 00:28N 19°12' W 096°08'0 0.0
2018-Jun-21 23:58N 19°12' W 096°08'0 0.0
2018-Jun-21 23:28N 19°12' W 096°08'0 0.0
2018-Jun-21 22:58N 19°12' W 096°08'0 0.0
2018-Jun-21 22:28N 19°12' W 096°08'0 0.0
2018-Jun-21 21:58N 19°12' W 096°08'0 0.0
2018-Jun-21 21:28N 19°12' W 096°08'0 0.0
2018-Jun-21 20:58N 19°12' W 096°08'0 0.0
2018-Jun-21 20:28N 19°12' W 096°08'0 0.0
2018-Jun-21 19:58N 19°12' W 096°08'0 0.0
2018-Jun-21 19:28N 19°12' W 096°08'0 0.0
2018-Jun-21 18:55N 19°12' W 096°08'0 0.0
2018-Jun-21 18:25N 19°12' W 096°08'0 0.0
2018-Jun-21 17:58N 19°12' W 096°08'0 0.0
2018-Jun-21 17:28N 19°12' W 096°08'0 0.0
2018-Jun-21 16:58N 19°12' W 096°08'0 0.0
2018-Jun-21 16:28N 19°12' W 096°08'0 0.0
2018-Jun-21 15:58N 19°12' W 096°08'0 0.0
2018-Jun-21 15:28N 19°12' W 096°08'0 0.0
2018-Jun-21 14:58N 19°12' W 096°08'0 0.0
2018-Jun-21 14:28N 19°12' W 096°08'0 0.0
2018-Jun-21 13:58N 19°12' W 096°08'0 0.0
2018-Jun-21 13:28N 19°12' W 096°08'0 0.0
2018-Jun-21 12:49N 19°12' W 096°08'0 0.0
2018-Jun-21 12:25N 19°12' W 096°08'0 0.7
2018-Jun-21 11:55N 19°12' W 096°08'1 1.8
2018-Jun-21 11:30N 19°12' W 096°07'4 7.3
2018-Jun-21 11:00N 19°11' W 096°04'4 4.8
2018-Jun-21 10:08N 19°12' W 096°08'0 0.0
2018-Jun-21 09:41N 19°12' W 096°08'0 0.0
2018-Jun-21 09:29N 19°12' W 096°08'0 0.0
2018-Jun-21 08:50N 19°12' W 096°08'0 0.0
2018-Jun-21 06:17N 19°12' W 096°08'0 0.0
2018-Jun-21 05:44N 19°12' W 096°08'0 0.0
2018-Jun-21 05:14N 19°12' W 096°08'0 0.0
2018-Jun-21 04:44N 19°12' W 096°08'0 0.0
2018-Jun-21 04:27N 19°12' W 096°08'4 5.6
2018-Jun-21 03:45N 19°11' W 096°04'311.9
2018-Jun-21 03:28N 19°12' W 096°07'0 0.9
2018-Jun-21 02:56N 19°12' W 096°08'0 0.0
2018-Jun-21 01:44N 19°12' W 096°08'0 0.0
2018-Jun-21 01:29N 19°12' W 096°08'0 0.0
2018-Jun-21 00:59N 19°12' W 096°08'0 0.0
2018-Jun-20 23:26N 19°12' W 096°08'0 0.0
2018-Jun-20 22:47N 19°12' W 096°08'0 0.0
2018-Jun-20 22:14N 19°12' W 096°08'0 0.0
2018-Jun-20 21:50N 19°12' W 096°08'0 0.0
2018-Jun-20 21:23N 19°12' W 096°08'0 0.0
2018-Jun-20 20:56N 19°12' W 096°08'0 0.0
2018-Jun-20 20:17N 19°12' W 096°08'0 0.0
2018-Jun-20 19:47N 19°12' W 096°08'0 0.0
2018-Jun-20 19:29N 19°12' W 096°08'0 0.0
2018-Jun-20 18:59N 19°12' W 096°08'0 0.8
2018-Jun-20 18:29N 19°12' W 096°08'0 0.6
2018-Jun-20 17:57N 19°12' W 096°08'0 0.0
2018-Jun-20 17:21N 19°12' W 096°08'0 0.0
2018-Jun-20 17:00N 19°12' W 096°08'0 0.0
2018-Jun-20 16:15N 19°12' W 096°08'0 0.0
2018-Jun-20 15:06N 19°12' W 096°08'0 0.1
2018-Jun-20 15:00N 19°12' W 096°08'0 0.0
2018-Jun-20 14:30N 19°12' W 096°08'0 0.0
2018-Jun-20 12:45N 19°12' W 096°08'0 0.0
2018-Jun-20 11:18N 19°12' W 096°08'0 0.0
2018-Jun-20 10:57N 19°12' W 096°08'0 0.0
2018-Jun-20 10:15N 19°12' W 096°08'0 0.0
2018-Jun-20 08:57N 19°12' W 096°08'1 2.7
2018-Jun-20 08:30N 19°12' W 096°07'1 2.3
2018-Jun-20 07:59N 19°12' W 096°08'0 0.0
2018-Jun-20 06:47N 19°12' W 096°08'0 0.0
2018-Jun-20 06:17N 19°12' W 096°08'0 0.0
2018-Jun-20 04:59N 19°12' W 096°08'0 0.0
2018-Jun-20 04:02N 19°12' W 096°08'0 0.0
2018-Jun-20 03:59N 19°12' W 096°08'0 0.0
2018-Jun-20 03:24N 19°12' W 096°08'0 0.0
2018-Jun-20 02:59N 19°12' W 096°08'0 0.0
2018-Jun-20 02:30N 19°12' W 096°08'0 0.2
2018-Jun-20 01:38N 19°12' W 096°08'0 0.9
2018-Jun-20 01:27N 19°12' W 096°08'0 0.1
2018-Jun-20 00:58N 19°12' W 096°08'1 1.1
2018-Jun-20 00:27N 19°12' W 096°07'1 1.3
2018-Jun-20 00:00N 19°12' W 096°07'2 2.8
2018-Jun-19 23:26N 19°13' W 096°08'1 1.9
2018-Jun-19 23:00N 19°12' W 096°08'0 0.0
2018-Jun-19 22:08N 19°12' W 096°08'0 0.0
2018-Jun-19 21:47N 19°12' W 096°08'0 0.0
2018-Jun-19 21:26N 19°12' W 096°08'0 0.0
2018-Jun-19 20:53N 19°12' W 096°08'0 0.0
2018-Jun-19 19:38N 19°12' W 096°08'0 0.3
2018-Jun-19 18:59N 19°12' W 096°08'1 1.1
2018-Jun-19 18:26N 19°13' W 096°08'1 1.4
2018-Jun-19 17:54N 19°12' W 096°08'1 2.1
2018-Jun-19 17:30N 19°13' W 096°08'0 0.3
2018-Jun-19 16:56N 19°13' W 096°08'1 1.8
2018-Jun-19 16:29N 19°12' W 096°08'0 0.0
2018-Jun-19 15:59N 19°12' W 096°08'0 0.0
2018-Jun-19 15:26N 19°12' W 096°08'0 0.5
2018-Jun-19 14:58N 19°12' W 096°08'1 1.2
2018-Jun-19 14:30N 19°13' W 096°08'1 1.6
2018-Jun-19 14:00N 19°12' W 096°08'4 7.0
2018-Jun-19 13:26N 19°12' W 096°04'4 8.7
2018-Jun-19 12:59N 19°12' W 096°08'0 0.0
2018-Jun-19 12:29N 19°12' W 096°08'0 0.0
2018-Jun-19 11:59N 19°12' W 096°08'0 0.0
2018-Jun-19 11:29N 19°12' W 096°08'0 0.0
2018-Jun-19 10:59N 19°12' W 096°08'0 0.0
2018-Jun-19 10:29N 19°12' W 096°08'0 0.0
2018-Jun-19 09:59N 19°12' W 096°08'0 0.0
2018-Jun-19 09:29N 19°12' W 096°08'0 0.0
2018-Jun-19 08:56N 19°12' W 096°08'0 0.0
2018-Jun-19 08:29N 19°12' W 096°08'0 0.0
2018-Jun-19 07:59N 19°12' W 096°08'0 0.0
2018-Jun-19 07:29N 19°12' W 096°08'0 0.0
2018-Jun-19 06:59N 19°12' W 096°08'0 0.0
2018-Jun-19 06:26N 19°12' W 096°08'0 0.0
2018-Jun-19 05:59N 19°12' W 096°08'1 1.5
2018-Jun-19 05:30N 19°13' W 096°08'1 1.2
2018-Jun-19 04:55N 19°12' W 096°08'4 9.0
2018-Jun-19 04:30N 19°11' W 096°04'4 7.2
2018-Jun-19 03:58N 19°12' W 096°08'0 0.0
2018-Jun-19 03:25N 19°12' W 096°08'0 0.0
2018-Jun-19 02:58N 19°12' W 096°08'0 0.0
2018-Jun-19 02:28N 19°12' W 096°08'0 0.0
2018-Jun-19 01:55N 19°12' W 096°08'0 0.0
2018-Jun-19 01:28N 19°12' W 096°08'0 0.0
2018-Jun-19 00:59N 19°12' W 096°08'2 4.5
2018-Jun-19 00:30N 19°12' W 096°06'2 3.9
2018-Jun-18 23:58N 19°12' W 096°08'0 0.0
2018-Jun-18 23:28N 19°12' W 096°08'0 0.8
2018-Jun-18 23:00N 19°12' W 096°08'0 0.6
2018-Jun-18 22:26N 19°12' W 096°08'0 0.0
2018-Jun-18 21:59N 19°12' W 096°08'0 0.0
2018-Jun-18 21:29N 19°12' W 096°08'0 0.0
2018-Jun-18 20:56N 19°12' W 096°08'0 0.0
2018-Jun-18 20:29N 19°12' W 096°08'0 0.0
2018-Jun-18 19:59N 19°12' W 096°08'0 0.0
2018-Jun-18 19:29N 19°12' W 096°08'2 3.6
2018-Jun-18 18:59N 19°12' W 096°06'2 3.2
2018-Jun-18 18:28N 19°12' W 096°08'0 0.6
2018-Jun-18 17:58N 19°12' W 096°08'0 0.0
2018-Jun-18 17:28N 19°12' W 096°08'0 0.0
2018-Jun-18 16:58N 19°12' W 096°08'0 0.0
2018-Jun-18 16:22N 19°12' W 096°08'0 0.0
2018-Jun-18 15:59N 19°12' W 096°08'0 0.0
2018-Jun-18 03:36N 19°12' W 096°08'0 0.0
2018-Jun-18 03:24N 19°12' W 096°08'0 0.0
2018-Jun-18 03:00N 19°12' W 096°08'0 0.0
2018-Jun-18 02:30N 19°12' W 096°08'0 0.0
2018-Jun-18 02:00N 19°12' W 096°08'0 0.0
2018-Jun-18 01:30N 19°12' W 096°08'0 0.0
2018-Jun-18 01:00N 19°12' W 096°08'0 0.0
2018-Jun-18 00:27N 19°12' W 096°08'0 0.0
2018-Jun-18 00:00N 19°12' W 096°08'0 0.0
2018-Jun-17 23:30N 19°12' W 096°08'3 6.4
2018-Jun-17 22:58N 19°12' W 096°04'3 5.9
2018-Jun-17 22:23N 19°12' W 096°08'0 0.1
2018-Jun-17 22:00N 19°12' W 096°08'0 0.0
2018-Jun-17 21:21N 19°12' W 096°08'0 0.0
2018-Jun-17 21:00N 19°12' W 096°08'0 0.0
2018-Jun-17 20:30N 19°12' W 096°08'0 0.0
2018-Jun-17 20:00N 19°12' W 096°08'0 0.0
2018-Jun-17 19:30N 19°12' W 096°08'0 0.0
2018-Jun-17 18:57N 19°12' W 096°08'0 0.0
2018-Jun-17 18:30N 19°12' W 096°08'0 0.0
2018-Jun-17 17:51N 19°12' W 096°08'2 4.2
2018-Jun-17 17:28N 19°12' W 096°06'0 0.7
2018-Jun-17 17:00N 19°12' W 096°06'1 2.1
2018-Jun-17 16:23N 19°12' W 096°08'0 0.0
2018-Jun-17 15:59N 19°12' W 096°08'0 0.0
2018-Jun-17 15:29N 19°12' W 096°08'0 0.0
2018-Jun-17 14:58N 19°12' W 096°08'0 0.1
2018-Jun-17 14:25N 19°12' W 096°08'0 0.0
2018-Jun-17 13:58N 19°12' W 096°08'0 0.0
2018-Jun-17 13:25N 19°12' W 096°08'0 0.0
2018-Jun-17 12:52N 19°12' W 096°08'0 0.0
2018-Jun-17 12:25N 19°12' W 096°08'0 0.0
2018-Jun-17 11:58N 19°12' W 096°08'0 0.0
2018-Jun-17 11:22N 19°12' W 096°08'0 0.0
2018-Jun-17 10:58N 19°12' W 096°08'0 0.0
2018-Jun-17 10:22N 19°12' W 096°08'0 0.0
2018-Jun-17 09:58N 19°12' W 096°08'0 0.0
2018-Jun-17 09:28N 19°12' W 096°08'0 0.0
2018-Jun-17 08:55N 19°12' W 096°08'0 0.0
2018-Jun-17 08:28N 19°12' W 096°08'0 0.0
2018-Jun-17 07:52N 19°12' W 096°08'0 0.0
2018-Jun-17 07:25N 19°12' W 096°08'0 0.0
2018-Jun-17 06:58N 19°12' W 096°08'0 0.0
2018-Jun-17 06:25N 19°12' W 096°08'0 0.0
2018-Jun-17 05:58N 19°12' W 096°08'0 0.0
2018-Jun-17 05:28N 19°12' W 096°08'0 0.0
2018-Jun-17 04:58N 19°12' W 096°08'0 0.0
2018-Jun-17 04:28N 19°12' W 096°08'0 0.0
2018-Jun-17 03:58N 19°12' W 096°08'0 0.0
2018-Jun-17 03:22N 19°12' W 096°08'0 0.0
2018-Jun-17 02:58N 19°12' W 096°08'0 0.0
2018-Jun-17 02:25N 19°12' W 096°08'0 0.0
2018-Jun-17 01:58N 19°12' W 096°08'0 0.0
2018-Jun-17 01:28N 19°12' W 096°08'0 0.0
2018-Jun-17 00:58N 19°12' W 096°08'0 0.0
2018-Jun-17 00:28N 19°12' W 096°08'0 0.0
2018-Jun-16 23:55N 19°12' W 096°08'0 0.0
2018-Jun-16 23:28N 19°12' W 096°08'0 0.1
2018-Jun-16 22:58N 19°12' W 096°08'0 0.1
2018-Jun-16 22:28N 19°12' W 096°08'4 7.6
2018-Jun-16 22:00N 19°11' W 096°04'4 6.2
2018-Jun-16 21:25N 19°12' W 096°08'0 0.0
2018-Jun-16 20:58N 19°12' W 096°08'2 4.5
2018-Jun-16 20:28N 19°12' W 096°05'2 4.8
2018-Jun-16 19:58N 19°12' W 096°08'0 0.7
2018-Jun-16 19:30N 19°12' W 096°08'0 0.1
2018-Jun-16 19:00N 19°12' W 096°08'0 0.6
2018-Jun-16 18:30N 19°12' W 096°08'0 0.2
2018-Jun-16 18:00N 19°12' W 096°08'0 0.5
2018-Jun-16 17:28N 19°12' W 096°08'0 0.0
2018-Jun-16 16:58N 19°12' W 096°08'3 5.7
2018-Jun-16 16:30N 19°12' W 096°05'3 4.9
2018-Jun-16 15:56N 19°12' W 096°08'0 0.6
2018-Jun-16 15:30N 19°12' W 096°08'0 0.4
2018-Jun-16 14:56N 19°12' W 096°08'0 0.0
2018-Jun-16 14:29N 19°12' W 096°08'2 3.4
2018-Jun-16 14:00N 19°12' W 096°06'2 3.4
2018-Jun-16 13:30N 19°12' W 096°08'0 0.2
2018-Jun-16 13:00N 19°12' W 096°08'0 0.0
2018-Jun-16 12:27N 19°12' W 096°08'0 0.0
2018-Jun-16 11:57N 19°12' W 096°08'0 0.0
2018-Jun-16 11:30N 19°12' W 096°08'0 0.0
2018-Jun-16 11:00N 19°12' W 096°08'0 0.0
2018-Jun-16 10:30N 19°12' W 096°08'0 0.0
2018-Jun-16 09:54N 19°12' W 096°08'0 0.0
2018-Jun-16 09:30N 19°12' W 096°08'0 0.0
2018-Jun-16 09:00N 19°12' W 096°08'0 0.0
2018-Jun-16 08:27N 19°12' W 096°08'0 0.0
2018-Jun-16 08:00N 19°12' W 096°08'0 0.0
2018-Jun-16 07:24N 19°12' W 096°08'2 4.5
2018-Jun-16 07:00N 19°12' W 096°06'2 3.4
2018-Jun-16 06:28N 19°12' W 096°08'1 1.6
2018-Jun-16 06:00N 19°13' W 096°08'1 1.4
2018-Jun-16 05:29N 19°12' W 096°08'0 0.0
2018-Jun-16 04:59N 19°12' W 096°08'0 0.0
2018-Jun-16 04:29N 19°12' W 096°08'0 0.0
2018-Jun-16 03:59N 19°12' W 096°08'0 0.0
2018-Jun-16 03:29N 19°12' W 096°08'1 1.6
2018-Jun-16 03:00N 19°13' W 096°08'4 7.8
2018-Jun-16 02:28N 19°11' W 096°04'4 7.6
2018-Jun-16 02:00N 19°12' W 096°08'0 0.1
2018-Jun-16 01:28N 19°12' W 096°08'0 0.0
2018-Jun-16 00:58N 19°12' W 096°08'0 0.0
2018-Jun-16 00:28N 19°12' W 096°08'0 0.0
2018-Jun-15 23:58N 19°12' W 096°08'0 0.0
2018-Jun-15 23:22N 19°12' W 096°08'0 0.0
2018-Jun-15 22:58N 19°12' W 096°08'0 0.0
2018-Jun-15 22:28N 19°12' W 096°08'0 0.0
2018-Jun-15 21:46N 19°12' W 096°08'0 0.0
2018-Jun-15 21:28N 19°12' W 096°08'0 0.0
2018-Jun-15 20:58N 19°12' W 096°08'0 0.7
2018-Jun-15 20:30N 19°12' W 096°08'0 0.6
2018-Jun-15 19:59N 19°12' W 096°08'3 6.8
2018-Jun-15 19:30N 19°11' W 096°04'3 6.2
2018-Jun-15 18:58N 19°12' W 096°08'0 0.0
2018-Jun-15 18:29N 19°12' W 096°08'0 0.1
2018-Jun-15 18:00N 19°12' W 096°08'1 2.0
2018-Jun-15 17:29N 19°12' W 096°07'2 3.1
2018-Jun-15 17:00N 19°13' W 096°08'1 1.6
2018-Jun-15 16:30N 19°12' W 096°08'0 0.0
2018-Jun-15 15:57N 19°12' W 096°08'0 1.0
2018-Jun-15 15:30N 19°12' W 096°07'2 3.7
2018-Jun-15 14:58N 19°12' W 096°05'2 5.0
2018-Jun-15 14:29N 19°12' W 096°08'2 3.8
2018-Jun-15 14:00N 19°12' W 096°06'1 2.3
2018-Jun-15 13:30N 19°12' W 096°07'1 1.4
2018-Jun-15 13:00N 19°12' W 096°08'0 0.4
2018-Jun-15 12:29N 19°12' W 096°08'0 0.0
2018-Jun-15 11:59N 19°12' W 096°08'0 0.8
2018-Jun-15 11:29N 19°12' W 096°08'0 0.8
2018-Jun-15 11:01N 19°12' W 096°08'1 2.0
2018-Jun-15 10:29N 19°12' W 096°07'2 3.7
2018-Jun-15 10:00N 19°12' W 096°05'3 5.6
2018-Jun-15 09:29N 19°12' W 096°08'0 0.0
2018-Jun-15 09:00N 19°12' W 096°08'3 5.9
2018-Jun-15 08:30N 19°12' W 096°05'3 5.0
2018-Jun-15 07:55N 19°12' W 096°08'0 0.0
2018-Jun-15 07:29N 19°12' W 096°08'0 0.0
2018-Jun-15 06:59N 19°12' W 096°08'0 0.0
2018-Jun-15 06:19N 19°12' W 096°08'0 0.0
2018-Jun-15 05:58N 19°12' W 096°08'0 0.0
2018-Jun-15 05:28N 19°12' W 096°08'0 0.0
2018-Jun-15 04:58N 19°12' W 096°08'0 0.0
2018-Jun-15 04:28N 19°12' W 096°08'0 0.0
2018-Jun-15 03:58N 19°12' W 096°08'0 0.0
2018-Jun-15 03:29N 19°12' W 096°08'0 0.0
2018-Jun-15 02:58N 19°12' W 096°08'0 0.0
2018-Jun-15 02:25N 19°12' W 096°08'0 0.0
2018-Jun-15 01:59N 19°12' W 096°08'0 0.0
2018-Jun-15 01:29N 19°12' W 096°08'0 0.0
2018-Jun-15 00:59N 19°12' W 096°08'0 0.0
2018-Jun-15 00:26N 19°12' W 096°08'0 0.0
2018-Jun-14 23:56N 19°12' W 096°08'0 0.0
2018-Jun-14 23:29N 19°12' W 096°08'0 0.0
2018-Jun-14 23:00N 19°12' W 096°08'2 3.3
2018-Jun-14 22:27N 19°12' W 096°06'2 3.4
2018-Jun-14 21:55N 19°12' W 096°08'0 0.0
2018-Jun-14 21:30N 19°12' W 096°08'0 0.0
2018-Jun-14 21:00N 19°12' W 096°08'0 0.0
2018-Jun-14 20:30N 19°12' W 096°08'0 0.0
2018-Jun-14 20:00N 19°12' W 096°08'0 0.0
2018-Jun-14 19:30N 19°12' W 096°08'0 0.0
2018-Jun-14 19:00N 19°12' W 096°08'0 0.0
2018-Jun-14 18:30N 19°12' W 096°08'0 0.0
2018-Jun-14 18:00N 19°12' W 096°08'0 0.0
2018-Jun-14 17:30N 19°12' W 096°08'0 0.0
2018-Jun-14 16:57N 19°12' W 096°08'0 0.0
2018-Jun-14 16:30N 19°12' W 096°08'0 0.0
2018-Jun-14 15:57N 19°12' W 096°08'0 0.0
2018-Jun-14 15:30N 19°12' W 096°08'0 0.0
2018-Jun-14 15:00N 19°12' W 096°08'0 0.0
2018-Jun-14 14:30N 19°12' W 096°08'0 0.5
2018-Jun-14 13:58N 19°12' W 096°08'0 0.0
2018-Jun-14 13:29N 19°12' W 096°08'0 0.5
2018-Jun-14 12:57N 19°12' W 096°08'0 0.0
2018-Jun-14 12:30N 19°12' W 096°08'1 1.4
2018-Jun-14 11:56N 19°13' W 096°08'0 0.2
2018-Jun-14 11:28N 19°13' W 096°08'3 7.1
2018-Jun-14 11:00N 19°12' W 096°05'3 5.5
2018-Jun-14 10:30N 19°12' W 096°08'0 0.1
2018-Jun-14 10:00N 19°12' W 096°08'3 5.1
2018-Jun-14 09:28N 19°12' W 096°05'3 5.8
2018-Jun-14 09:00N 19°12' W 096°08'0 0.0
2018-Jun-14 08:26N 19°12' W 096°08'0 0.0
2018-Jun-14 07:59N 19°12' W 096°08'0 0.0
2018-Jun-14 07:29N 19°12' W 096°08'0 0.0
2018-Jun-14 06:59N 19°12' W 096°08'0 0.0
2018-Jun-14 06:29N 19°12' W 096°08'0 0.0
2018-Jun-14 05:56N 19°12' W 096°08'0 0.0
2018-Jun-14 05:29N 19°12' W 096°08'0 0.0
2018-Jun-14 04:56N 19°12' W 096°08'0 0.0
2018-Jun-14 04:29N 19°12' W 096°08'0 0.1
2018-Jun-14 03:59N 19°12' W 096°08'0 0.1
2018-Jun-14 03:28N 19°12' W 096°08'0 0.0
2018-Jun-14 03:00N 19°12' W 096°08'1 1.8
2018-Jun-14 02:21N 19°12' W 096°07'1 3.8
2018-Jun-14 02:00N 19°12' W 096°08'1 0.9
2018-Jun-14 01:26N 19°13' W 096°08'1 2.1
2018-Jun-14 01:00N 19°12' W 096°08'1 1.2
2018-Jun-14 00:30N 19°12' W 096°07'2 3.2
2018-Jun-14 00:00N 19°12' W 096°05'2 4.2
2018-Jun-13 23:28N 19°12' W 096°08'0 0.0
2018-Jun-13 22:58N 19°12' W 096°08'2 5.0
2018-Jun-13 22:30N 19°12' W 096°05'2 4.6
2018-Jun-13 22:00N 19°12' W 096°08'0 0.7
2018-Jun-13 21:29N 19°12' W 096°08'0 0.0
2018-Jun-13 20:58N 19°12' W 096°08'1 1.7
2018-Jun-13 20:30N 19°13' W 096°08'1 1.6
2018-Jun-13 20:00N 19°12' W 096°08'2 4.6
2018-Jun-13 19:30N 19°14' W 096°07'1 2.3
2018-Jun-13 18:59N 19°14' W 096°08'2 4.2
2018-Jun-13 18:30N 19°13' W 096°07'1 2.4
2018-Jun-13 17:59N 19°12' W 096°08'0 0.0
2018-Jun-13 17:28N 19°12' W 096°08'0 0.0
2018-Jun-13 16:58N 19°12' W 096°08'0 0.0
2018-Jun-13 16:28N 19°12' W 096°08'0 0.0
2018-Jun-13 15:58N 19°12' W 096°08'0 0.0
2018-Jun-13 15:28N 19°12' W 096°08'0 0.0
2018-Jun-13 14:52N 19°12' W 096°08'0 0.0
2018-Jun-13 14:22N 19°12' W 096°08'0 0.0
2018-Jun-13 13:49N 19°12' W 096°08'0 0.0
2018-Jun-13 13:25N 19°12' W 096°08'0 0.0
2018-Jun-13 12:58N 19°12' W 096°08'0 0.0
2018-Jun-13 12:28N 19°12' W 096°08'0 0.0
2018-Jun-13 11:58N 19°12' W 096°08'1 0.9
2018-Jun-13 11:23N 19°12' W 096°07'1 1.3
2018-Jun-13 10:58N 19°12' W 096°08'4 7.9
2018-Jun-13 10:30N 19°11' W 096°04'4 7.2
2018-Jun-13 09:59N 19°12' W 096°08'0 0.0
2018-Jun-13 09:29N 19°12' W 096°08'0 0.0
2018-Jun-13 08:59N 19°12' W 096°08'0 0.0
2018-Jun-13 08:29N 19°12' W 096°08'0 0.0
2018-Jun-13 07:59N 19°12' W 096°08'0 0.0
2018-Jun-13 07:29N 19°12' W 096°08'0 0.0
2018-Jun-13 06:56N 19°12' W 096°08'0 0.0
2018-Jun-13 06:29N 19°12' W 096°08'0 0.0
2018-Jun-13 05:59N 19°12' W 096°08'0 0.0
2018-Jun-13 05:26N 19°12' W 096°08'0 0.0
2018-Jun-13 04:59N 19°12' W 096°08'0 0.0
2018-Jun-13 04:29N 19°12' W 096°08'0 0.0
2018-Jun-13 03:59N 19°12' W 096°08'0 0.0
2018-Jun-13 03:29N 19°12' W 096°08'0 0.0
2018-Jun-13 02:59N 19°12' W 096°08'0 0.0
2018-Jun-13 02:30N 19°12' W 096°08'3 6.0
2018-Jun-13 01:58N 19°12' W 096°04'4 8.2
2018-Jun-13 01:30N 19°13' W 096°08'1 1.6
2018-Jun-13 00:58N 19°12' W 096°08'2 4.0
2018-Jun-13 00:27N 19°12' W 096°06'2 4.3
2018-Jun-12 23:57N 19°12' W 096°08'0 0.2
2018-Jun-12 23:30N 19°12' W 096°08'0 0.2
2018-Jun-12 23:00N 19°12' W 096°08'0 0.0
2018-Jun-12 22:30N 19°12' W 096°08'0 0.0
2018-Jun-12 22:00N 19°12' W 096°08'0 0.0
2018-Jun-12 21:30N 19°12' W 096°08'0 0.1
2018-Jun-12 21:00N 19°12' W 096°08'0 0.4
2018-Jun-12 20:29N 19°12' W 096°08'0 0.5
2018-Jun-12 19:58N 19°12' W 096°08'0 0.0
2018-Jun-12 19:28N 19°12' W 096°08'0 0.0
2018-Jun-12 18:58N 19°12' W 096°08'0 0.8
2018-Jun-12 18:31N 19°12' W 096°08'0 0.7
2018-Jun-12 18:00N 19°12' W 096°08'4 7.5
2018-Jun-12 17:28N 19°11' W 096°04'4 8.4
2018-Jun-12 16:59N 19°12' W 096°08'1 1.4
2018-Jun-12 16:29N 19°13' W 096°08'1 1.4
2018-Jun-12 16:00N 19°12' W 096°08'0 0.0
2018-Jun-12 15:29N 19°12' W 096°08'0 0.0
2018-Jun-12 15:00N 19°12' W 096°08'0 0.0
2018-Jun-12 14:30N 19°12' W 096°08'0 0.0
2018-Jun-12 13:55N 19°12' W 096°08'0 0.4
2018-Jun-12 13:30N 19°12' W 096°08'0 0.3
2018-Jun-12 12:59N 19°12' W 096°08'0 0.5
2018-Jun-12 12:30N 19°12' W 096°08'1 2.7
2018-Jun-12 11:58N 19°12' W 096°06'1 1.3
2018-Jun-12 11:28N 19°12' W 096°07'1 1.5
2018-Jun-12 10:58N 19°12' W 096°08'0 0.0
2018-Jun-12 10:29N 19°12' W 096°08'0 0.0
2018-Jun-12 09:59N 19°12' W 096°08'0 0.0
2018-Jun-12 09:29N 19°12' W 096°08'0 0.0
2018-Jun-12 08:59N 19°12' W 096°08'0 0.0
2018-Jun-12 08:29N 19°12' W 096°08'0 0.0
2018-Jun-12 07:56N 19°12' W 096°08'0 0.0
2018-Jun-12 07:29N 19°12' W 096°08'0 0.0
2018-Jun-12 06:59N 19°12' W 096°08'0 0.0
2018-Jun-12 06:26N 19°12' W 096°08'0 0.0
2018-Jun-12 05:59N 19°12' W 096°08'0 0.0
2018-Jun-12 05:29N 19°12' W 096°08'3 6.3
2018-Jun-12 04:58N 19°11' W 096°04'3 6.6
2018-Jun-12 04:30N 19°12' W 096°08'0 0.3
2018-Jun-12 04:00N 19°12' W 096°08'4 7.7
2018-Jun-12 03:30N 19°11' W 096°04'4 8.0
2018-Jun-12 03:00N 19°12' W 096°08'0 0.9
2018-Jun-12 02:30N 19°12' W 096°07'1 2.1
2018-Jun-12 02:00N 19°12' W 096°06'1 2.8
2018-Jun-12 01:29N 19°12' W 096°08'  
Track history (hours):
 
Tides and Currents Weather Stations Pressure Air Temp Water Temp Dewpoint Dewpoint Depression Visibility Wind Speed Wind Dir Waves Ship Positions

La Victoria

Last reported at 2018-Jun-22 01:28 UTC. Time now 2018-Jun-22 01:30 UTC.
Position N 19°12' W 096°08'.

Length 15 m.

Type: Pilot. MMSI: 345030092.

Date/timePositionNaut miles runAvg speedWind from/ knotsBaromVisibWave heightAir tempDewpointWater temp
2018-Jun-22 01:28N 19°12' W 096°08'0 0.0
2018-Jun-22 00:52N 19°12' W 096°08'0 0.0
2018-Jun-22 00:28N 19°12' W 096°08'0 0.0
2018-Jun-21 23:58N 19°12' W 096°08'0 0.0
2018-Jun-21 23:28N 19°12' W 096°08'0 0.0
2018-Jun-21 22:58N 19°12' W 096°08'0 0.0
2018-Jun-21 22:28N 19°12' W 096°08'0 0.0
2018-Jun-21 21:58N 19°12' W 096°08'0 0.0
2018-Jun-21 21:28N 19°12' W 096°08'0 0.0
2018-Jun-21 20:58N 19°12' W 096°08'0 0.0
2018-Jun-21 20:28N 19°12' W 096°08'0 0.0
2018-Jun-21 19:58N 19°12' W 096°08'0 0.0
2018-Jun-21 19:28N 19°12' W 096°08'0 0.0
2018-Jun-21 18:55N 19°12' W 096°08'0 0.0
2018-Jun-21 18:25N 19°12' W 096°08'0 0.0
2018-Jun-21 17:58N 19°12' W 096°08'0 0.0
2018-Jun-21 17:28N 19°12' W 096°08'0 0.0
2018-Jun-21 16:58N 19°12' W 096°08'0 0.0
2018-Jun-21 16:28N 19°12' W 096°08'0 0.0
2018-Jun-21 15:58N 19°12' W 096°08'0 0.0
2018-Jun-21 15:28N 19°12' W 096°08'0 0.0
2018-Jun-21 14:58N 19°12' W 096°08'0 0.0
2018-Jun-21 14:28N 19°12' W 096°08'0 0.0
2018-Jun-21 13:58N 19°12' W 096°08'0 0.0
2018-Jun-21 13:28N 19°12' W 096°08'0 0.0
2018-Jun-21 12:49N 19°12' W 096°08'0 0.0
2018-Jun-21 12:25N 19°12' W 096°08'0 0.7
2018-Jun-21 11:55N 19°12' W 096°08'1 1.8
2018-Jun-21 11:30N 19°12' W 096°07'4 7.3
2018-Jun-21 11:00N 19°11' W 096°04'4 4.8
2018-Jun-21 10:08N 19°12' W 096°08'0 0.0
2018-Jun-21 09:41N 19°12' W 096°08'0 0.0
2018-Jun-21 09:29N 19°12' W 096°08'0 0.0
2018-Jun-21 08:50N 19°12' W 096°08'0 0.0
2018-Jun-21 06:17N 19°12' W 096°08'0 0.0
2018-Jun-21 05:44N 19°12' W 096°08'0 0.0
2018-Jun-21 05:14N 19°12' W 096°08'0 0.0
2018-Jun-21 04:44N 19°12' W 096°08'0 0.0
2018-Jun-21 04:27N 19°12' W 096°08'4 5.6
2018-Jun-21 03:45N 19°11' W 096°04'311.9
2018-Jun-21 03:28N 19°12' W 096°07'0 0.9
2018-Jun-21 02:56N 19°12' W 096°08'0 0.0
2018-Jun-21 01:44N 19°12' W 096°08'0 0.0
2018-Jun-21 01:29N 19°12' W 096°08'0 0.0
2018-Jun-21 00:59N 19°12' W 096°08'0 0.0
2018-Jun-20 23:26N 19°12' W 096°08'0 0.0
2018-Jun-20 22:47N 19°12' W 096°08'0 0.0
2018-Jun-20 22:14N 19°12' W 096°08'0 0.0
2018-Jun-20 21:50N 19°12' W 096°08'0 0.0
2018-Jun-20 21:23N 19°12' W 096°08'0 0.0
2018-Jun-20 20:56N 19°12' W 096°08'0 0.0
2018-Jun-20 20:17N 19°12' W 096°08'0 0.0
2018-Jun-20 19:47N 19°12' W 096°08'0 0.0
2018-Jun-20 19:29N 19°12' W 096°08'0 0.0
2018-Jun-20 18:59N 19°12' W 096°08'0 0.8
2018-Jun-20 18:29N 19°12' W 096°08'0 0.6
2018-Jun-20 17:57N 19°12' W 096°08'0 0.0
2018-Jun-20 17:21N 19°12' W 096°08'0 0.0
2018-Jun-20 17:00N 19°12' W 096°08'0 0.0
2018-Jun-20 16:15N 19°12' W 096°08'0 0.0
2018-Jun-20 15:06N 19°12' W 096°08'0 0.1
2018-Jun-20 15:00N 19°12' W 096°08'0 0.0
2018-Jun-20 14:30N 19°12' W 096°08'0 0.0
2018-Jun-20 12:45N 19°12' W 096°08'0 0.0
2018-Jun-20 11:18N 19°12' W 096°08'0 0.0
2018-Jun-20 10:57N 19°12' W 096°08'0 0.0
2018-Jun-20 10:15N 19°12' W 096°08'0 0.0
2018-Jun-20 08:57N 19°12' W 096°08'1 2.7
2018-Jun-20 08:30N 19°12' W 096°07'1 2.3
2018-Jun-20 07:59N 19°12' W 096°08'0 0.0
2018-Jun-20 06:47N 19°12' W 096°08'0 0.0
2018-Jun-20 06:17N 19°12' W 096°08'0 0.0
2018-Jun-20 04:59N 19°12' W 096°08'0 0.0
2018-Jun-20 04:02N 19°12' W 096°08'0 0.0
2018-Jun-20 03:59N 19°12' W 096°08'0 0.0
2018-Jun-20 03:24N 19°12' W 096°08'0 0.0
2018-Jun-20 02:59N 19°12' W 096°08'0 0.0
2018-Jun-20 02:30N 19°12' W 096°08'0 0.2
2018-Jun-20 01:38N 19°12' W 096°08'0 0.9
2018-Jun-20 01:27N 19°12' W 096°08'0 0.1
2018-Jun-20 00:58N 19°12' W 096°08'1 1.1
2018-Jun-20 00:27N 19°12' W 096°07'1 1.3
2018-Jun-20 00:00N 19°12' W 096°07'2 2.8
2018-Jun-19 23:26N 19°13' W 096°08'1 1.9
2018-Jun-19 23:00N 19°12' W 096°08'0 0.0
2018-Jun-19 22:08N 19°12' W 096°08'0 0.0
2018-Jun-19 21:47N 19°12' W 096°08'0 0.0
2018-Jun-19 21:26N 19°12' W 096°08'0 0.0
2018-Jun-19 20:53N 19°12' W 096°08'0 0.0
2018-Jun-19 19:38N 19°12' W 096°08'0 0.3
2018-Jun-19 18:59N 19°12' W 096°08'1 1.1
2018-Jun-19 18:26N 19°13' W 096°08'1 1.4
2018-Jun-19 17:54N 19°12' W 096°08'1 2.1
2018-Jun-19 17:30N 19°13' W 096°08'0 0.3
2018-Jun-19 16:56N 19°13' W 096°08'1 1.8
2018-Jun-19 16:29N 19°12' W 096°08'0 0.0
2018-Jun-19 15:59N 19°12' W 096°08'0 0.0
2018-Jun-19 15:26N 19°12' W 096°08'0 0.5
2018-Jun-19 14:58N 19°12' W 096°08'1 1.2
2018-Jun-19 14:30N 19°13' W 096°08'1 1.6
2018-Jun-19 14:00N 19°12' W 096°08'4 7.0
2018-Jun-19 13:26N 19°12' W 096°04'4 8.7
2018-Jun-19 12:59N 19°12' W 096°08'0 0.0
2018-Jun-19 12:29N 19°12' W 096°08'0 0.0
2018-Jun-19 11:59N 19°12' W 096°08'0 0.0
2018-Jun-19 11:29N 19°12' W 096°08'0 0.0
2018-Jun-19 10:59N 19°12' W 096°08'0 0.0
2018-Jun-19 10:29N 19°12' W 096°08'0 0.0
2018-Jun-19 09:59N 19°12' W 096°08'0 0.0
2018-Jun-19 09:29N 19°12' W 096°08'0 0.0
2018-Jun-19 08:56N 19°12' W 096°08'0 0.0
2018-Jun-19 08:29N 19°12' W 096°08'0 0.0
2018-Jun-19 07:59N 19°12' W 096°08'0 0.0
2018-Jun-19 07:29N 19°12' W 096°08'0 0.0
2018-Jun-19 06:59N 19°12' W 096°08'0 0.0
2018-Jun-19 06:26N 19°12' W 096°08'0 0.0
2018-Jun-19 05:59N 19°12' W 096°08'1 1.5
2018-Jun-19 05:30N 19°13' W 096°08'1 1.2
2018-Jun-19 04:55N 19°12' W 096°08'4 9.0
2018-Jun-19 04:30N 19°11' W 096°04'4 7.2
2018-Jun-19 03:58N 19°12' W 096°08'0 0.0
2018-Jun-19 03:25N 19°12' W 096°08'0 0.0
2018-Jun-19 02:58N 19°12' W 096°08'0 0.0
2018-Jun-19 02:28N 19°12' W 096°08'0 0.0
2018-Jun-19 01:55N 19°12' W 096°08'0 0.0
2018-Jun-19 01:28N 19°12' W 096°08'0 0.0
2018-Jun-19 00:59N 19°12' W 096°08'2 4.5
2018-Jun-19 00:30N 19°12' W 096°06'2 3.9
2018-Jun-18 23:58N 19°12' W 096°08'0 0.0
2018-Jun-18 23:28N 19°12' W 096°08'0 0.8
2018-Jun-18 23:00N 19°12' W 096°08'0 0.6
2018-Jun-18 22:26N 19°12' W 096°08'0 0.0
2018-Jun-18 21:59N 19°12' W 096°08'0 0.0
2018-Jun-18 21:29N 19°12' W 096°08'0 0.0
2018-Jun-18 20:56N 19°12' W 096°08'0 0.0
2018-Jun-18 20:29N 19°12' W 096°08'0 0.0
2018-Jun-18 19:59N 19°12' W 096°08'0 0.0
2018-Jun-18 19:29N 19°12' W 096°08'2 3.6
2018-Jun-18 18:59N 19°12' W 096°06'2 3.2
2018-Jun-18 18:28N 19°12' W 096°08'0 0.6
2018-Jun-18 17:58N 19°12' W 096°08'0 0.0
2018-Jun-18 17:28N 19°12' W 096°08'0 0.0
2018-Jun-18 16:58N 19°12' W 096°08'0 0.0
2018-Jun-18 16:22N 19°12' W 096°08'0 0.0
2018-Jun-18 15:59N 19°12' W 096°08'0 0.0
2018-Jun-18 03:36N 19°12' W 096°08'0 0.0
2018-Jun-18 03:24N 19°12' W 096°08'0 0.0
2018-Jun-18 03:00N 19°12' W 096°08'0 0.0
2018-Jun-18 02:30N 19°12' W 096°08'0 0.0
2018-Jun-18 02:00N 19°12' W 096°08'0 0.0
2018-Jun-18 01:30N 19°12' W 096°08'0 0.0
2018-Jun-18 01:00N 19°12' W 096°08'0 0.0
2018-Jun-18 00:27N 19°12' W 096°08'0 0.0
2018-Jun-18 00:00N 19°12' W 096°08'0 0.0
2018-Jun-17 23:30N 19°12' W 096°08'3 6.4
2018-Jun-17 22:58N 19°12' W 096°04'3 5.9
2018-Jun-17 22:23N 19°12' W 096°08'0 0.1
2018-Jun-17 22:00N 19°12' W 096°08'0 0.0
2018-Jun-17 21:21N 19°12' W 096°08'0 0.0
2018-Jun-17 21:00N 19°12' W 096°08'0 0.0
2018-Jun-17 20:30N 19°12' W 096°08'0 0.0
2018-Jun-17 20:00N 19°12' W 096°08'0 0.0
2018-Jun-17 19:30N 19°12' W 096°08'0 0.0
2018-Jun-17 18:57N 19°12' W 096°08'0 0.0
2018-Jun-17 18:30N 19°12' W 096°08'0 0.0
2018-Jun-17 17:51N 19°12' W 096°08'2 4.2
2018-Jun-17 17:28N 19°12' W 096°06'0 0.7
2018-Jun-17 17:00N 19°12' W 096°06'1 2.1
2018-Jun-17 16:23N 19°12' W 096°08'0 0.0
2018-Jun-17 15:59N 19°12' W 096°08'0 0.0
2018-Jun-17 15:29N 19°12' W 096°08'0 0.0
2018-Jun-17 14:58N 19°12' W 096°08'0 0.1
2018-Jun-17 14:25N 19°12' W 096°08'0 0.0
2018-Jun-17 13:58N 19°12' W 096°08'0 0.0
2018-Jun-17 13:25N 19°12' W 096°08'0 0.0
2018-Jun-17 12:52N 19°12' W 096°08'0 0.0
2018-Jun-17 12:25N 19°12' W 096°08'0 0.0
2018-Jun-17 11:58N 19°12' W 096°08'0 0.0
2018-Jun-17 11:22N 19°12' W 096°08'0 0.0
2018-Jun-17 10:58N 19°12' W 096°08'0 0.0
2018-Jun-17 10:22N 19°12' W 096°08'0 0.0
2018-Jun-17 09:58N 19°12' W 096°08'0 0.0
2018-Jun-17 09:28N 19°12' W 096°08'0 0.0
2018-Jun-17 08:55N 19°12' W 096°08'0 0.0
2018-Jun-17 08:28N 19°12' W 096°08'0 0.0
2018-Jun-17 07:52N 19°12' W 096°08'0 0.0
2018-Jun-17 07:25N 19°12' W 096°08'0 0.0
2018-Jun-17 06:58N 19°12' W 096°08'0 0.0
2018-Jun-17 06:25N 19°12' W 096°08'0 0.0
2018-Jun-17 05:58N 19°12' W 096°08'0 0.0
2018-Jun-17 05:28N 19°12' W 096°08'0 0.0
2018-Jun-17 04:58N 19°12' W 096°08'0 0.0
2018-Jun-17 04:28N 19°12' W 096°08'0 0.0
2018-Jun-17 03:58N 19°12' W 096°08'0 0.0
2018-Jun-17 03:22N 19°12' W 096°08'0 0.0
2018-Jun-17 02:58N 19°12' W 096°08'0 0.0
2018-Jun-17 02:25N 19°12' W 096°08'0 0.0
2018-Jun-17 01:58N 19°12' W 096°08'0 0.0
2018-Jun-17 01:28N 19°12' W 096°08'0 0.0
2018-Jun-17 00:58N 19°12' W 096°08'0 0.0
2018-Jun-17 00:28N 19°12' W 096°08'0 0.0
2018-Jun-16 23:55N 19°12' W 096°08'0 0.0
2018-Jun-16 23:28N 19°12' W 096°08'0 0.1
2018-Jun-16 22:58N 19°12' W 096°08'0 0.1
2018-Jun-16 22:28N 19°12' W 096°08'4 7.6
2018-Jun-16 22:00N 19°11' W 096°04'4 6.2
2018-Jun-16 21:25N 19°12' W 096°08'0 0.0
2018-Jun-16 20:58N 19°12' W 096°08'2 4.5
2018-Jun-16 20:28N 19°12' W 096°05'2 4.8
2018-Jun-16 19:58N 19°12' W 096°08'0 0.7
2018-Jun-16 19:30N 19°12' W 096°08'0 0.1
2018-Jun-16 19:00N 19°12' W 096°08'0 0.6
2018-Jun-16 18:30N 19°12' W 096°08'0 0.2
2018-Jun-16 18:00N 19°12' W 096°08'0 0.5
2018-Jun-16 17:28N 19°12' W 096°08'0 0.0
2018-Jun-16 16:58N 19°12' W 096°08'3 5.7
2018-Jun-16 16:30N 19°12' W 096°05'3 4.9
2018-Jun-16 15:56N 19°12' W 096°08'0 0.6
2018-Jun-16 15:30N 19°12' W 096°08'0 0.4
2018-Jun-16 14:56N 19°12' W 096°08'0 0.0
2018-Jun-16 14:29N 19°12' W 096°08'2 3.4
2018-Jun-16 14:00N 19°12' W 096°06'2 3.4
2018-Jun-16 13:30N 19°12' W 096°08'0 0.2
2018-Jun-16 13:00N 19°12' W 096°08'0 0.0
2018-Jun-16 12:27N 19°12' W 096°08'0 0.0
2018-Jun-16 11:57N 19°12' W 096°08'0 0.0
2018-Jun-16 11:30N 19°12' W 096°08'0 0.0
2018-Jun-16 11:00N 19°12' W 096°08'0 0.0
2018-Jun-16 10:30N 19°12' W 096°08'0 0.0
2018-Jun-16 09:54N 19°12' W 096°08'0 0.0
2018-Jun-16 09:30N 19°12' W 096°08'0 0.0
2018-Jun-16 09:00N 19°12' W 096°08'0 0.0
2018-Jun-16 08:27N 19°12' W 096°08'0 0.0
2018-Jun-16 08:00N 19°12' W 096°08'0 0.0
2018-Jun-16 07:24N 19°12' W 096°08'2 4.5
2018-Jun-16 07:00N 19°12' W 096°06'2 3.4
2018-Jun-16 06:28N 19°12' W 096°08'1 1.6
2018-Jun-16 06:00N 19°13' W 096°08'1 1.4
2018-Jun-16 05:29N 19°12' W 096°08'0 0.0
2018-Jun-16 04:59N 19°12' W 096°08'0 0.0
2018-Jun-16 04:29N 19°12' W 096°08'0 0.0
2018-Jun-16 03:59N 19°12' W 096°08'0 0.0
2018-Jun-16 03:29N 19°12' W 096°08'1 1.6
2018-Jun-16 03:00N 19°13' W 096°08'4 7.8
2018-Jun-16 02:28N 19°11' W 096°04'4 7.6
2018-Jun-16 02:00N 19°12' W 096°08'0 0.1
2018-Jun-16 01:28N 19°12' W 096°08'0 0.0
2018-Jun-16 00:58N 19°12' W 096°08'0 0.0
2018-Jun-16 00:28N 19°12' W 096°08'0 0.0
2018-Jun-15 23:58N 19°12' W 096°08'0 0.0
2018-Jun-15 23:22N 19°12' W 096°08'0 0.0
2018-Jun-15 22:58N 19°12' W 096°08'0 0.0
2018-Jun-15 22:28N 19°12' W 096°08'0 0.0
2018-Jun-15 21:46N 19°12' W 096°08'0 0.0
2018-Jun-15 21:28N 19°12' W 096°08'0 0.0
2018-Jun-15 20:58N 19°12' W 096°08'0 0.7
2018-Jun-15 20:30N 19°12' W 096°08'0 0.6
2018-Jun-15 19:59N 19°12' W 096°08'3 6.8
2018-Jun-15 19:30N 19°11' W 096°04'3 6.2
2018-Jun-15 18:58N 19°12' W 096°08'0 0.0
2018-Jun-15 18:29N 19°12' W 096°08'0 0.1
2018-Jun-15 18:00N 19°12' W 096°08'1 2.0
2018-Jun-15 17:29N 19°12' W 096°07'2 3.1
2018-Jun-15 17:00N 19°13' W 096°08'1 1.6
2018-Jun-15 16:30N 19°12' W 096°08'0 0.0
2018-Jun-15 15:57N 19°12' W 096°08'0 1.0
2018-Jun-15 15:30N 19°12' W 096°07'2 3.7
2018-Jun-15 14:58N 19°12' W 096°05'2 5.0
2018-Jun-15 14:29N 19°12' W 096°08'2 3.8
2018-Jun-15 14:00N 19°12' W 096°06'1 2.3
2018-Jun-15 13:30N 19°12' W 096°07'1 1.4
2018-Jun-15 13:00N 19°12' W 096°08'0 0.4
2018-Jun-15 12:29N 19°12' W 096°08'0 0.0
2018-Jun-15 11:59N 19°12' W 096°08'0 0.8
2018-Jun-15 11:29N 19°12' W 096°08'0 0.8
2018-Jun-15 11:01N 19°12' W 096°08'1 2.0
2018-Jun-15 10:29N 19°12' W 096°07'2 3.7
2018-Jun-15 10:00N 19°12' W 096°05'3 5.6
2018-Jun-15 09:29N 19°12' W 096°08'0 0.0
2018-Jun-15 09:00N 19°12' W 096°08'3 5.9
2018-Jun-15 08:30N 19°12' W 096°05'3 5.0
2018-Jun-15 07:55N 19°12' W 096°08'0 0.0
2018-Jun-15 07:29N 19°12' W 096°08'0 0.0
2018-Jun-15 06:59N 19°12' W 096°08'0 0.0
2018-Jun-15 06:19N 19°12' W 096°08'0 0.0
2018-Jun-15 05:58N 19°12' W 096°08'0 0.0
2018-Jun-15 05:28N 19°12' W 096°08'0 0.0
2018-Jun-15 04:58N 19°12' W 096°08'0 0.0
2018-Jun-15 04:28N 19°12' W 096°08'0 0.0
2018-Jun-15 03:58N 19°12' W 096°08'0 0.0
2018-Jun-15 03:29N 19°12' W 096°08'0 0.0
2018-Jun-15 02:58N 19°12' W 096°08'0 0.0
2018-Jun-15 02:25N 19°12' W 096°08'0 0.0
2018-Jun-15 01:59N 19°12' W 096°08'0 0.0
2018-Jun-15 01:29N 19°12' W 096°08'0 0.0
2018-Jun-15 00:59N 19°12' W 096°08'0 0.0
2018-Jun-15 00:26N 19°12' W 096°08'0 0.0
2018-Jun-14 23:56N 19°12' W 096°08'0 0.0
2018-Jun-14 23:29N 19°12' W 096°08'0 0.0
2018-Jun-14 23:00N 19°12' W 096°08'2 3.3
2018-Jun-14 22:27N 19°12' W 096°06'2 3.4
2018-Jun-14 21:55N 19°12' W 096°08'0 0.0
2018-Jun-14 21:30N 19°12' W 096°08'0 0.0
2018-Jun-14 21:00N 19°12' W 096°08'0 0.0
2018-Jun-14 20:30N 19°12' W 096°08'0 0.0
2018-Jun-14 20:00N 19°12' W 096°08'0 0.0
2018-Jun-14 19:30N 19°12' W 096°08'0 0.0
2018-Jun-14 19:00N 19°12' W 096°08'0 0.0
2018-Jun-14 18:30N 19°12' W 096°08'0 0.0
2018-Jun-14 18:00N 19°12' W 096°08'0 0.0
2018-Jun-14 17:30N 19°12' W 096°08'0 0.0
2018-Jun-14 16:57N 19°12' W 096°08'0 0.0
2018-Jun-14 16:30N 19°12' W 096°08'0 0.0
2018-Jun-14 15:57N 19°12' W 096°08'0 0.0
2018-Jun-14 15:30N 19°12' W 096°08'0 0.0
2018-Jun-14 15:00N 19°12' W 096°08'0 0.0
2018-Jun-14 14:30N 19°12' W 096°08'0 0.5
2018-Jun-14 13:58N 19°12' W 096°08'0 0.0
2018-Jun-14 13:29N 19°12' W 096°08'0 0.5
2018-Jun-14 12:57N 19°12' W 096°08'0 0.0
2018-Jun-14 12:30N 19°12' W 096°08'1 1.4
2018-Jun-14 11:56N 19°13' W 096°08'0 0.2
2018-Jun-14 11:28N 19°13' W 096°08'3 7.1
2018-Jun-14 11:00N 19°12' W 096°05'3 5.5
2018-Jun-14 10:30N 19°12' W 096°08'0 0.1
2018-Jun-14 10:00N 19°12' W 096°08'3 5.1
2018-Jun-14 09:28N 19°12' W 096°05'3 5.8
2018-Jun-14 09:00N 19°12' W 096°08'0 0.0
2018-Jun-14 08:26N 19°12' W 096°08'0 0.0
2018-Jun-14 07:59N 19°12' W 096°08'0 0.0
2018-Jun-14 07:29N 19°12' W 096°08'0 0.0
2018-Jun-14 06:59N 19°12' W 096°08'0 0.0
2018-Jun-14 06:29N 19°12' W 096°08'0 0.0
2018-Jun-14 05:56N 19°12' W 096°08'0 0.0
2018-Jun-14 05:29N 19°12' W 096°08'0 0.0
2018-Jun-14 04:56N 19°12' W 096°08'0 0.0
2018-Jun-14 04:29N 19°12' W 096°08'0 0.1
2018-Jun-14 03:59N 19°12' W 096°08'0 0.1
2018-Jun-14 03:28N 19°12' W 096°08'0 0.0
2018-Jun-14 03:00N 19°12' W 096°08'1 1.8
2018-Jun-14 02:21N 19°12' W 096°07'1 3.8
2018-Jun-14 02:00N 19°12' W 096°08'1 0.9
2018-Jun-14 01:26N 19°13' W 096°08'1 2.1
2018-Jun-14 01:00N 19°12' W 096°08'1 1.2
2018-Jun-14 00:30N 19°12' W 096°07'2 3.2
2018-Jun-14 00:00N 19°12' W 096°05'2 4.2
2018-Jun-13 23:28N 19°12' W 096°08'0 0.0
2018-Jun-13 22:58N 19°12' W 096°08'2 5.0
2018-Jun-13 22:30N 19°12' W 096°05'2 4.6
2018-Jun-13 22:00N 19°12' W 096°08'0 0.7
2018-Jun-13 21:29N 19°12' W 096°08'0 0.0
2018-Jun-13 20:58N 19°12' W 096°08'1 1.7
2018-Jun-13 20:30N 19°13' W 096°08'1 1.6
2018-Jun-13 20:00N 19°12' W 096°08'2 4.6
2018-Jun-13 19:30N 19°14' W 096°07'1 2.3
2018-Jun-13 18:59N 19°14' W 096°08'2 4.2
2018-Jun-13 18:30N 19°13' W 096°07'1 2.4
2018-Jun-13 17:59N 19°12' W 096°08'0 0.0
2018-Jun-13 17:28N 19°12' W 096°08'0 0.0
2018-Jun-13 16:58N 19°12' W 096°08'0 0.0
2018-Jun-13 16:28N 19°12' W 096°08'0 0.0
2018-Jun-13 15:58N 19°12' W 096°08'0 0.0
2018-Jun-13 15:28N 19°12' W 096°08'0 0.0
2018-Jun-13 14:52N 19°12' W 096°08'0 0.0
2018-Jun-13 14:22N 19°12' W 096°08'0 0.0
2018-Jun-13 13:49N 19°12' W 096°08'0 0.0
2018-Jun-13 13:25N 19°12' W 096°08'0 0.0
2018-Jun-13 12:58N 19°12' W 096°08'0 0.0
2018-Jun-13 12:28N 19°12' W 096°08'0 0.0
2018-Jun-13 11:58N 19°12' W 096°08'1 0.9
2018-Jun-13 11:23N 19°12' W 096°07'1 1.3
2018-Jun-13 10:58N 19°12' W 096°08'4 7.9
2018-Jun-13 10:30N 19°11' W 096°04'4 7.2
2018-Jun-13 09:59N 19°12' W 096°08'0 0.0
2018-Jun-13 09:29N 19°12' W 096°08'0 0.0
2018-Jun-13 08:59N 19°12' W 096°08'0 0.0
2018-Jun-13 08:29N 19°12' W 096°08'0 0.0
2018-Jun-13 07:59N 19°12' W 096°08'0 0.0
2018-Jun-13 07:29N 19°12' W 096°08'0 0.0
2018-Jun-13 06:56N 19°12' W 096°08'0 0.0
2018-Jun-13 06:29N 19°12' W 096°08'0 0.0
2018-Jun-13 05:59N 19°12' W 096°08'0 0.0
2018-Jun-13 05:26N 19°12' W 096°08'0 0.0
2018-Jun-13 04:59N 19°12' W 096°08'0 0.0
2018-Jun-13 04:29N 19°12' W 096°08'0 0.0
2018-Jun-13 03:59N 19°12' W 096°08'0 0.0
2018-Jun-13 03:29N 19°12' W 096°08'0 0.0
2018-Jun-13 02:59N 19°12' W 096°08'0 0.0
2018-Jun-13 02:30N 19°12' W 096°08'3 6.0
2018-Jun-13 01:58N 19°12' W 096°04'4 8.2
2018-Jun-13 01:30N 19°13' W 096°08'1 1.6
2018-Jun-13 00:58N 19°12' W 096°08'2 4.0
2018-Jun-13 00:27N 19°12' W 096°06'2 4.3
2018-Jun-12 23:57N 19°12' W 096°08'0 0.2
2018-Jun-12 23:30N 19°12' W 096°08'0 0.2
2018-Jun-12 23:00N 19°12' W 096°08'0 0.0
2018-Jun-12 22:30N 19°12' W 096°08'0 0.0
2018-Jun-12 22:00N 19°12' W 096°08'0 0.0
2018-Jun-12 21:30N 19°12' W 096°08'0 0.1
2018-Jun-12 21:00N 19°12' W 096°08'0 0.4
2018-Jun-12 20:29N 19°12' W 096°08'0 0.5
2018-Jun-12 19:58N 19°12' W 096°08'0 0.0
2018-Jun-12 19:28N 19°12' W 096°08'0 0.0
2018-Jun-12 18:58N 19°12' W 096°08'0 0.8
2018-Jun-12 18:31N 19°12' W 096°08'0 0.7
2018-Jun-12 18:00N 19°12' W 096°08'4 7.5
2018-Jun-12 17:28N 19°11' W 096°04'4 8.4
2018-Jun-12 16:59N 19°12' W 096°08'1 1.4
2018-Jun-12 16:29N 19°13' W 096°08'1 1.4
2018-Jun-12 16:00N 19°12' W 096°08'0 0.0
2018-Jun-12 15:29N 19°12' W 096°08'0 0.0
2018-Jun-12 15:00N 19°12' W 096°08'0 0.0
2018-Jun-12 14:30N 19°12' W 096°08'0 0.0
2018-Jun-12 13:55N 19°12' W 096°08'0 0.4
2018-Jun-12 13:30N 19°12' W 096°08'0 0.3
2018-Jun-12 12:59N 19°12' W 096°08'0 0.5
2018-Jun-12 12:30N 19°12' W 096°08'1 2.7
2018-Jun-12 11:58N 19°12' W 096°06'1 1.3
2018-Jun-12 11:28N 19°12' W 096°07'1 1.5
2018-Jun-12 10:58N 19°12' W 096°08'0 0.0
2018-Jun-12 10:29N 19°12' W 096°08'0 0.0
2018-Jun-12 09:59N 19°12' W 096°08'0 0.0
2018-Jun-12 09:29N 19°12' W 096°08'0 0.0
2018-Jun-12 08:59N 19°12' W 096°08'0 0.0
2018-Jun-12 08:29N 19°12' W 096°08'0 0.0
2018-Jun-12 07:56N 19°12' W 096°08'0 0.0
2018-Jun-12 07:29N 19°12' W 096°08'0 0.0
2018-Jun-12 06:59N 19°12' W 096°08'0 0.0
2018-Jun-12 06:26N 19°12' W 096°08'0 0.0
2018-Jun-12 05:59N 19°12' W 096°08'0 0.0
2018-Jun-12 05:29N 19°12' W 096°08'3 6.3
2018-Jun-12 04:58N 19°11' W 096°04'3 6.6
2018-Jun-12 04:30N 19°12' W 096°08'0 0.3
2018-Jun-12 04:00N 19°12' W 096°08'4 7.7
2018-Jun-12 03:30N 19°11' W 096°04'4 8.0
2018-Jun-12 03:00N 19°12' W 096°08'0 0.9
2018-Jun-12 02:30N 19°12' W 096°07'1 2.1
2018-Jun-12 02:00N 19°12' W 096°06'1 2.8
2018-Jun-12 01:29N 19°12' W 096°08'  

Dump ship's entire track history